createdAt,value
2022-10-21T00:02:11.646Z,186.26
2022-10-21T00:07:44.680Z,186.04
2022-10-21T00:13:16.431Z,185.62
2022-10-21T00:18:48.091Z,184.19
2022-10-21T00:24:19.841Z,183.18
2022-10-21T00:29:51.615Z,176.03
2022-10-21T00:35:23.411Z,167.04
2022-10-21T00:40:55.096Z,162.17
2022-10-21T00:46:26.836Z,159.69
2022-10-21T00:51:58.947Z,157.43
2022-10-21T00:57:30.673Z,157.13
2022-10-21T01:03:02.607Z,158.48
2022-10-21T01:08:34.535Z,156.40
2022-10-21T01:14:06.338Z,158.03
2022-10-21T01:19:38.620Z,158.63
2022-10-21T01:25:10.524Z,160.61
2022-10-21T01:30:42.385Z,161.39
2022-10-21T01:36:14.153Z,159.84
2022-10-21T01:41:45.897Z,161.54
2022-10-21T01:47:17.732Z,167.04
2022-10-21T01:52:49.449Z,174.55
2022-10-21T01:58:21.418Z,176.96
2022-10-21T02:03:53.360Z,176.59
2022-10-21T02:09:25.626Z,170.11
2022-10-21T02:14:57.547Z,166.38
2022-10-21T02:20:29.431Z,168.73
2022-10-21T02:26:01.513Z,175.66
2022-10-21T02:31:33.783Z,178.10
2022-10-21T02:37:05.699Z,177.90
2022-10-21T02:42:37.699Z,174.92
2022-10-21T02:48:09.317Z,175.66
2022-10-21T02:53:41.168Z,173.47
2022-10-21T02:59:13.042Z,166.04
2022-10-21T03:04:44.713Z,163.28
2022-10-21T03:10:16.615Z,166.04
2022-10-21T03:15:48.705Z,165.88
2022-10-21T03:21:20.997Z,160.92
2022-10-21T03:26:53.410Z,161.39
2022-10-21T03:32:25.667Z,158.18
2022-10-21T03:43:29.391Z,155.52
2022-10-21T03:49:04.225Z,151.98
2022-10-21T03:54:33.575Z,151.29
2022-10-21T04:00:07.777Z,151.43
2022-10-21T04:05:39.725Z,151.43
2022-10-21T04:11:12.268Z,152.68
2022-10-21T04:16:46.106Z,153.24
2022-10-21T04:22:16.754Z,151.71
2022-10-21T04:27:48.990Z,151.43
2022-10-21T04:33:22.643Z,152.26
2022-10-21T04:38:54.886Z,153.38
2022-10-21T04:44:27.024Z,156.10
2022-10-21T04:49:59.285Z,155.09
2022-10-21T04:55:31.033Z,155.09
2022-10-21T05:01:03.108Z,155.81
2022-10-21T05:06:34.998Z,155.81
2022-10-21T05:12:06.804Z,153.80
2022-10-21T05:17:38.872Z,152.68
2022-10-21T05:23:10.583Z,152.40
2022-10-21T05:34:12.437Z,149.40
2022-10-21T05:39:44.163Z,150.20
2022-10-21T05:45:15.782Z,149.40
2022-10-21T05:50:47.475Z,151.02
2022-10-21T05:56:19.293Z,150.34
2022-10-21T06:07:20.809Z,150.20
2022-10-21T06:12:52.660Z,152.12
2022-10-21T06:18:24.467Z,152.12
2022-10-21T06:23:56.614Z,152.68
2022-10-21T06:29:28.335Z,151.98
2022-10-21T06:35:00.215Z,153.52
2022-10-21T06:40:31.929Z,155.38
2022-10-21T06:46:03.713Z,155.67
2022-10-21T06:51:35.859Z,155.67
2022-10-21T06:57:07.926Z,155.81
2022-10-21T07:02:40.561Z,157.58
2022-10-21T07:08:12.798Z,162.33
2022-10-21T07:13:43.664Z,160.77
2022-10-21T07:19:15.559Z,167.88
2022-10-21T07:24:47.729Z,164.90
2022-10-21T07:30:19.617Z,164.09
2022-10-21T07:35:51.427Z,160.15
2022-10-21T07:41:23.221Z,157.88
2022-10-21T07:46:54.977Z,157.28
2022-10-21T07:52:26.904Z,157.88
2022-10-21T07:57:58.883Z,160.77
2022-10-21T08:09:00.908Z,161.39
2022-10-21T08:14:32.657Z,163.28
2022-10-21T08:20:04.517Z,164.25
2022-10-21T08:31:06.875Z,170.11
2022-10-21T08:36:39.239Z,171.15
2022-10-21T08:42:11.453Z,171.68
2022-10-21T08:47:43.762Z,172.21
2022-10-21T08:53:15.911Z,172.04
2022-10-21T08:58:48.009Z,171.68
2022-10-21T09:04:20.189Z,171.33
2022-10-21T09:09:52.029Z,169.07
2022-10-21T09:15:24.302Z,168.39
2022-10-21T09:20:58.490Z,168.73
2022-10-21T09:26:30.308Z,169.42
2022-10-21T09:32:02.548Z,168.56
2022-10-21T09:37:35.430Z,167.21
2022-10-21T09:43:04.757Z,168.90
2022-10-21T09:48:45.241Z,168.22
2022-10-21T09:54:08.790Z,168.39
2022-10-21T10:05:12.704Z,165.88
2022-10-21T10:10:44.619Z,163.28
2022-10-21T10:16:16.826Z,164.25
2022-10-21T10:32:53.118Z,160.77
2022-10-21T10:38:24.980Z,160.77
2022-10-21T10:43:56.907Z,159.38
2022-10-21T10:49:28.698Z,158.48
2022-10-21T10:55:02.857Z,158.78
2022-10-21T11:00:34.536Z,157.58
2022-10-21T11:06:06.240Z,156.99
2022-10-21T11:11:38.052Z,154.23
2022-10-21T11:17:10.282Z,153.24
2022-10-21T11:22:42.236Z,154.37
2022-10-21T11:28:13.741Z,152.12
2022-10-21T11:33:45.505Z,150.47
2022-10-21T11:35:58.019Z,153.94
2022-10-21T11:41:28.636Z,149.80
2022-10-21T11:52:32.375Z,145.36
2022-10-21T11:58:06.063Z,144.73
2022-10-21T12:09:22.464Z,140.70
2022-10-21T12:14:54.763Z,139.06
2022-10-21T12:20:26.751Z,140.00
2022-10-21T12:25:58.254Z,139.41
2022-10-21T12:31:30.044Z,138.60
2022-10-21T12:37:02.230Z,137.80
2022-10-21T12:48:05.458Z,136.45
2022-10-21T12:55:57.958Z,138.72
2022-10-21T13:01:29.806Z,138.60
2022-10-21T13:07:01.602Z,136.22
2022-10-21T13:23:38.904Z,132.23
2022-10-21T13:29:12.662Z,131.29
2022-10-21T13:45:49.486Z,127.19
2022-10-21T13:51:21.212Z,127.48
2022-10-21T13:56:52.661Z,125.75
2022-10-21T14:02:24.379Z,124.35
2022-10-21T14:15:52.787Z,125.38
2022-10-21T14:21:24.638Z,125.09
2022-10-21T14:26:56.313Z,124.16
2022-10-21T14:37:57.571Z,122.97
2022-10-21T14:43:29.381Z,122.97
2022-10-21T14:49:00.941Z,124.25
2022-10-21T14:54:32.482Z,124.53
2022-10-21T15:00:03.871Z,125.00
2022-10-21T15:05:35.851Z,123.06
2022-10-21T15:11:07.651Z,124.25
2022-10-21T15:16:39.257Z,123.61
2022-10-21T15:22:10.687Z,124.53
2022-10-21T15:27:42.931Z,122.16
2022-10-21T15:33:14.586Z,122.07
2022-10-21T15:38:46.251Z,122.43
2022-10-21T15:44:18.372Z,119.45
2022-10-21T15:49:49.892Z,120.75
2022-10-21T15:55:21.709Z,120.66
2022-10-21T16:00:53.582Z,121.10
2022-10-21T16:06:25.252Z,122.16
2022-10-21T16:12:01.017Z,122.70
2022-10-21T16:17:28.848Z,123.06
2022-10-21T16:23:03.039Z,124.81
2022-10-21T16:28:32.449Z,125.85
2022-10-21T16:34:03.810Z,127.00
2022-10-21T16:39:35.298Z,128.07
2022-10-21T16:45:07.006Z,127.00
2022-10-21T16:50:38.923Z,127.48
2022-10-21T16:56:10.633Z,128.37
2022-10-21T17:01:42.337Z,127.87
2022-10-21T17:07:13.802Z,128.86
2022-10-21T17:12:45.691Z,129.06
2022-10-21T17:18:17.313Z,129.96
2022-10-21T17:23:49.116Z,130.07
2022-10-21T17:29:20.834Z,129.16
2022-10-21T17:34:52.292Z,126.81
2022-10-21T17:40:24.149Z,125.00
2022-10-21T17:45:56.223Z,126.81
2022-10-21T17:51:28.805Z,130.47
2022-10-21T17:53:51.333Z,134.47
2022-10-21T18:12:53.877Z,124.16
2022-10-21T18:18:25.657Z,122.07
2022-10-21T18:29:32.428Z,121.01
2022-10-21T18:35:03.953Z,121.28
2022-10-21T18:40:35.780Z,121.10
2022-10-21T18:46:07.807Z,121.36
2022-10-21T19:02:48.482Z,121.36
2022-10-21T19:08:19.968Z,120.84
2022-10-21T19:13:51.734Z,121.63
2022-10-21T19:19:23.533Z,121.63
2022-10-21T19:24:55.340Z,122.16
2022-10-21T19:30:27.073Z,122.43
2022-10-21T19:35:59.146Z,123.70
2022-10-21T19:41:30.786Z,123.43
2022-10-21T19:47:02.413Z,124.63
2022-10-21T19:52:34.107Z,126.90
2022-10-21T19:58:05.764Z,129.36
2022-10-21T20:03:37.442Z,130.47
2022-10-21T20:09:09.093Z,132.65
2022-10-21T20:14:40.925Z,133.39
2022-10-21T20:25:44.409Z,137.91
2022-10-21T20:31:16.189Z,139.06
2022-10-21T20:36:48.335Z,138.03
2022-10-21T20:42:20.166Z,136.22
2022-10-21T20:47:52.001Z,136.45
2022-10-21T20:53:24.473Z,137.23
2022-10-21T20:58:57.164Z,136.11
2022-10-21T21:04:28.570Z,137.46
2022-10-21T21:10:03.050Z,140.35
2022-10-21T21:15:32.168Z,138.03
2022-10-21T21:21:04.040Z,138.49
2022-10-21T21:26:35.808Z,137.12
2022-10-21T21:32:07.536Z,136.45
2022-10-21T21:43:11.202Z,135.78
2022-10-21T21:48:46.874Z,133.61
2022-10-21T21:54:17.208Z,132.23
2022-10-21T21:59:49.063Z,130.78
2022-10-21T22:05:23.585Z,129.56
2022-10-21T22:10:52.568Z,128.56
2022-10-21T22:16:24.427Z,127.48
2022-10-21T22:21:56.112Z,125.94
2022-10-21T22:27:27.952Z,124.81
2022-10-21T22:32:59.847Z,124.35
2022-10-21T22:38:31.456Z,124.16
2022-10-21T22:44:03.241Z,124.16
2022-10-21T22:49:36.872Z,123.52
2022-10-21T22:55:08.641Z,123.70
2022-10-21T23:00:40.728Z,123.34
2022-10-21T23:06:12.279Z,122.97
2022-10-21T23:11:44.104Z,122.97
2022-10-21T23:17:15.945Z,122.61
2022-10-21T23:22:47.673Z,122.52
2022-10-21T23:33:51.009Z,123.34
2022-10-21T23:39:22.756Z,122.97
2022-10-21T23:44:54.512Z,122.79
2022-10-21T23:50:26.034Z,122.88
